sensor_id;sensor_type;location;lat;lon;timestamp;pressure;altitude;pressure_sealevel;temperature;humidity
57094;BME280;42970;50.996;3.706;2023-02-28T00:00:10;77353.00;;;-146.65;74.74
57094;BME280;42970;50.996;3.706;2023-02-28T00:02:39;77332.81;;;-146.65;74.99
57094;BME280;42970;50.996;3.706;2023-02-28T00:05:05;77357.03;;;-146.65;75.06
57094;BME280;42970;50.996;3.706;2023-02-28T00:07:31;77348.94;;;-146.65;75.08
57094;BME280;42970;50.996;3.706;2023-02-28T00:09:56;77344.91;;;-146.65;75.35
57094;BME280;42970;50.996;3.706;2023-02-28T00:12:21;77353.00;;;-146.65;75.38
57094;BME280;42970;50.996;3.706;2023-02-28T00:14:47;77359.03;;;-146.65;75.61
57094;BME280;42970;50.996;3.706;2023-02-28T00:17:12;77359.03;;;-146.65;75.77
57094;BME280;42970;50.996;3.706;2023-02-28T00:19:37;77350.97;;;-146.65;75.83
57094;BME280;42970;50.996;3.706;2023-02-28T00:22:03;77361.06;;;-146.65;75.94
57094;BME280;42970;50.996;3.706;2023-02-28T00:24:28;77369.13;;;-146.65;76.62
57094;BME280;42970;50.996;3.706;2023-02-28T00:26:53;77381.25;;;-146.65;77.03
57094;BME280;42970;50.996;3.706;2023-02-28T00:29:19;77373.16;;;-146.65;77.35
57094;BME280;42970;50.996;3.706;2023-02-28T00:31:44;77385.28;;;-146.65;77.41
57094;BME280;42970;50.996;3.706;2023-02-28T00:34:09;77397.38;;;-146.65;77.72
57094;BME280;42970;50.996;3.706;2023-02-28T00:36:35;77387.28;;;-146.65;77.79
57094;BME280;42970;50.996;3.706;2023-02-28T00:39:00;77391.34;;;-146.65;78.05
57094;BME280;42970;50.996;3.706;2023-02-28T00:41:25;77395.38;;;-146.65;78.21
57094;BME280;42970;50.996;3.706;2023-02-28T00:43:51;77391.34;;;-146.65;78.56
57094;BME280;42970;50.996;3.706;2023-02-28T00:46:16;77389.31;;;-146.65;78.56
57094;BME280;42970;50.996;3.706;2023-02-28T00:48:41;77395.38;;;-146.65;78.57
57094;BME280;42970;50.996;3.706;2023-02-28T00:51:07;77403.44;;;-146.65;79.06
57094;BME280;42970;50.996;3.706;2023-02-28T00:53:32;77401.41;;;-146.65;79.20
57094;BME280;42970;50.996;3.706;2023-02-28T00:55:58;77409.50;;;-146.65;79.39
57094;BME280;42970;50.996;3.706;2023-02-28T00:58:23;77407.47;;;-146.65;79.98
57094;BME280;42970;50.996;3.706;2023-02-28T01:00:50;77413.53;;;-146.65;79.89
57094;BME280;42970;50.996;3.706;2023-02-28T01:03:16;77399.41;;;-146.65;80.02
57094;BME280;42970;50.996;3.706;2023-02-28T01:05:41;77395.38;;;-146.65;80.01
57094;BME280;42970;50.996;3.706;2023-02-28T01:08:07;77401.41;;;-146.65;80.18
57094;BME280;42970;50.996;3.706;2023-02-28T01:10:32;77411.50;;;-146.65;80.46
57094;BME280;42970;50.996;3.706;2023-02-28T01:12:57;77401.41;;;-146.65;80.82
57094;BME280;42970;50.996;3.706;2023-02-28T01:15:23;77401.41;;;-146.65;80.79
57094;BME280;42970;50.996;3.706;2023-02-28T01:17:48;77415.53;;;-146.65;81.08
57094;BME280;42970;50.996;3.706;2023-02-28T01:20:14;77401.41;;;-146.65;80.83
57094;BME280;42970;50.996;3.706;2023-02-28T01:22:39;77407.47;;;-146.65;80.99
57094;BME280;42970;50.996;3.706;2023-02-28T01:25:05;77407.47;;;-146.65;81.28
57094;BME280;42970;50.996;3.706;2023-02-28T01:27:30;77409.50;;;-146.65;81.47
57094;BME280;42970;50.996;3.706;2023-02-28T01:29:56;77381.25;;;-146.65;81.20
57094;BME280;42970;50.996;3.706;2023-02-28T01:32:21;77397.38;;;-146.65;81.15
57094;BME280;42970;50.996;3.706;2023-02-28T01:34:47;77401.41;;;-146.65;81.27
57094;BME280;42970;50.996;3.706;2023-02-28T01:37:12;77393.34;;;-146.65;81.28
57094;BME280;42970;50.996;3.706;2023-02-28T01:39:37;77415.53;;;-146.65;81.61
57094;BME280;42970;50.996;3.706;2023-02-28T01:42:03;77413.53;;;-146.65;81.95
57094;BME280;42970;50.996;3.706;2023-02-28T01:47:12;77407.47;;;-146.65;82.64
57094;BME280;42970;50.996;3.706;2023-02-28T01:49:38;77413.53;;;-146.65;82.70
57094;BME280;42970;50.996;3.706;2023-02-28T01:52:04;77423.63;;;-146.65;82.74
57094;BME280;42970;50.996;3.706;2023-02-28T01:54:30;77405.47;;;-146.65;83.09
57094;BME280;42970;50.996;3.706;2023-02-28T01:56:58;77409.50;;;-146.65;83.53
57094;BME280;42970;50.996;3.706;2023-02-28T01:59:38;77401.41;;;-146.65;83.53
57094;BME280;42970;50.996;3.706;2023-02-28T02:02:11;77411.50;;;-146.65;84.16
57094;BME280;42970;50.996;3.706;2023-02-28T02:04:37;77419.59;;;-146.65;84.57
57094;BME280;42970;50.996;3.706;2023-02-28T02:07:05;77411.50;;;-146.65;84.86
57094;BME280;42970;50.996;3.706;2023-02-28T02:09:30;77413.53;;;-146.65;85.22
57094;BME280;42970;50.996;3.706;2023-02-28T02:11:56;77407.47;;;-146.65;85.31
57094;BME280;42970;50.996;3.706;2023-02-28T02:22:35;77435.72;;;-146.65;86.97
57094;BME280;42970;50.996;3.706;2023-02-28T02:40:23;77443.81;;;-146.65;88.62
57094;BME280;42970;50.996;3.706;2023-02-28T02:45:21;77437.75;;;-146.65;88.37
57094;BME280;42970;50.996;3.706;2023-02-28T02:47:49;77427.66;;;-146.65;88.32
57094;BME280;42970;50.996;3.706;2023-02-28T02:50:26;77431.69;;;-146.65;88.53
57094;BME280;42970;50.996;3.706;2023-02-28T02:52:55;77427.66;;;-146.65;88.51
57094;BME280;42970;50.996;3.706;2023-02-28T02:55:22;77439.75;;;-146.65;88.46
57094;BME280;42970;50.996;3.706;2023-02-28T02:57:53;77443.81;;;-146.65;88.70
57094;BME280;42970;50.996;3.706;2023-02-28T03:00:21;77455.91;;;-146.65;88.90
57094;BME280;42970;50.996;3.706;2023-02-28T03:02:48;77466.00;;;-146.65;89.24
57094;BME280;42970;50.996;3.706;2023-02-28T03:05:18;77459.94;;;-146.65;89.27
57094;BME280;42970;50.996;3.706;2023-02-28T03:07:44;77484.16;;;-146.65;89.43
57094;BME280;42970;50.996;3.706;2023-02-28T03:10:26;77478.09;;;-146.65;89.81
57094;BME280;42970;50.996;3.706;2023-02-28T03:12:53;77461.97;;;-146.65;89.80
57094;BME280;42970;50.996;3.706;2023-02-28T03:15:27;77478.09;;;-146.65;89.85
57094;BME280;42970;50.996;3.706;2023-02-28T03:18:18;77470.03;;;-146.65;89.86
57094;BME280;42970;50.996;3.706;2023-02-28T03:20:53;77468.00;;;-146.65;89.85
57094;BME280;42970;50.996;3.706;2023-02-28T03:23:34;77461.97;;;-146.65;89.77
57094;BME280;42970;50.996;3.706;2023-02-28T03:26:04;77466.00;;;-146.65;89.76
57094;BME280;42970;50.996;3.706;2023-02-28T03:33:36;77468.00;;;-146.65;89.66
57094;BME280;42970;50.996;3.706;2023-02-28T03:36:05;77470.03;;;-146.65;89.83
57094;BME280;42970;50.996;3.706;2023-02-28T03:38:33;77463.97;;;-146.65;89.75
57094;BME280;42970;50.996;3.706;2023-02-28T03:41:06;77466.00;;;-146.65;89.73
57094;BME280;42970;50.996;3.706;2023-02-28T03:43:34;77474.06;;;-146.65;89.75
57094;BME280;42970;50.996;3.706;2023-02-28T03:46:01;77457.94;;;-146.65;89.57
57094;BME280;42970;50.996;3.706;2023-02-28T03:48:41;77472.06;;;-146.65;89.65
57094;BME280;42970;50.996;3.706;2023-02-28T03:51:09;77453.88;;;-146.65;89.61
57094;BME280;42970;50.996;3.706;2023-02-28T03:53:39;77466.00;;;-146.65;89.71
57094;BME280;42970;50.996;3.706;2023-02-28T03:58:43;77459.94;;;-146.65;89.30
57094;BME280;42970;50.996;3.706;2023-02-28T04:03:37;77470.03;;;-146.65;89.34
57094;BME280;42970;50.996;3.706;2023-02-28T04:06:04;77457.94;;;-146.65;89.35
57094;BME280;42970;50.996;3.706;2023-02-28T04:08:30;77453.88;;;-146.65;88.99
57094;BME280;42970;50.996;3.706;2023-02-28T04:11:00;77437.75;;;-146.65;88.64
57094;BME280;42970;50.996;3.706;2023-02-28T04:13:28;77431.69;;;-146.65;87.87
57094;BME280;42970;50.996;3.706;2023-02-28T04:15:53;77441.78;;;-146.65;88.19
57094;BME280;42970;50.996;3.706;2023-02-28T04:18:19;77445.81;;;-146.65;88.05
57094;BME280;42970;50.996;3.706;2023-02-28T04:20:44;77433.72;;;-146.65;87.91
57094;BME280;42970;50.996;3.706;2023-02-28T04:23:09;77427.66;;;-146.65;87.36
57094;BME280;42970;50.996;3.706;2023-02-28T04:25:34;77413.53;;;-146.65;87.36
57094;BME280;42970;50.996;3.706;2023-02-28T04:28:00;77405.47;;;-146.65;86.80
57094;BME280;42970;50.996;3.706;2023-02-28T04:30:25;77393.34;;;-146.65;86.52
57094;BME280;42970;50.996;3.706;2023-02-28T04:32:50;77393.34;;;-146.65;86.31
57094;BME280;42970;50.996;3.706;2023-02-28T04:35:16;77389.31;;;-146.65;86.60
57094;BME280;42970;50.996;3.706;2023-02-28T04:37:41;77389.31;;;-146.65;86.78
57094;BME280;42970;50.996;3.706;2023-02-28T04:40:07;77393.34;;;-146.65;86.69
57094;BME280;42970;50.996;3.706;2023-02-28T04:42:32;77391.34;;;-146.65;86.64
57094;BME280;42970;50.996;3.706;2023-02-28T04:45:03;77397.38;;;-146.65;86.90
57094;BME280;42970;50.996;3.706;2023-02-28T04:47:28;77389.31;;;-146.65;87.04
57094;BME280;42970;50.996;3.706;2023-02-28T04:49:54;77379.22;;;-146.65;87.11
57094;BME280;42970;50.996;3.706;2023-02-28T04:52:19;77381.25;;;-146.65;87.31
57094;BME280;42970;50.996;3.706;2023-02-28T04:54:44;77373.16;;;-146.65;87.35
57094;BME280;42970;50.996;3.706;2023-02-28T04:57:10;77385.28;;;-146.65;87.19
57094;BME280;42970;50.996;3.706;2023-02-28T04:59:35;77353.00;;;-146.65;87.03
57094;BME280;42970;50.996;3.706;2023-02-28T05:02:00;77379.22;;;-146.65;87.45
57094;BME280;42970;50.996;3.706;2023-02-28T05:04:31;77363.09;;;-146.65;87.08
57094;BME280;42970;50.996;3.706;2023-02-28T05:06:59;77357.03;;;-146.65;86.61
57094;BME280;42970;50.996;3.706;2023-02-28T05:09:24;77363.09;;;-146.65;86.85
57094;BME280;42970;50.996;3.706;2023-02-28T05:11:50;77365.09;;;-146.65;87.12
57094;BME280;42970;50.996;3.706;2023-02-28T05:14:15;77353.00;;;-146.65;86.60
57094;BME280;42970;50.996;3.706;2023-02-28T05:16:40;77365.09;;;-146.65;86.03
57094;BME280;42970;50.996;3.706;2023-02-28T05:19:06;77357.03;;;-146.65;86.22
57094;BME280;42970;50.996;3.706;2023-02-28T05:21:32;77348.94;;;-146.65;86.05
57094;BME280;42970;50.996;3.706;2023-02-28T05:23:59;77340.88;;;-146.65;85.73
57094;BME280;42970;50.996;3.706;2023-02-28T05:26:25;77338.88;;;-146.65;85.79
57094;BME280;42970;50.996;3.706;2023-02-28T05:28:50;77342.91;;;-146.65;85.63
57094;BME280;42970;50.996;3.706;2023-02-28T05:31:16;77348.94;;;-146.65;85.93
57094;BME280;42970;50.996;3.706;2023-02-28T05:33:41;77336.84;;;-146.65;85.70
57094;BME280;42970;50.996;3.706;2023-02-28T05:36:06;77316.66;;;-146.65;85.77
57094;BME280;42970;50.996;3.706;2023-02-28T05:38:32;77314.66;;;-146.65;85.81
57094;BME280;42970;50.996;3.706;2023-02-28T05:40:57;77324.75;;;-146.65;85.68
57094;BME280;42970;50.996;3.706;2023-02-28T05:43:23;77332.81;;;-146.65;85.78
57094;BME280;42970;50.996;3.706;2023-02-28T05:45:48;77332.81;;;-146.65;86.24
57094;BME280;42970;50.996;3.706;2023-02-28T05:48:14;77312.63;;;-146.65;85.70
57094;BME280;42970;50.996;3.706;2023-02-28T05:50:39;77308.59;;;-146.65;85.52
57094;BME280;42970;50.996;3.706;2023-02-28T05:53:04;77310.63;;;-146.65;85.31
57094;BME280;42970;50.996;3.706;2023-02-28T05:55:30;77312.63;;;-146.65;85.28
57094;BME280;42970;50.996;3.706;2023-02-28T05:57:55;77304.56;;;-146.65;85.55
57094;BME280;42970;50.996;3.706;2023-02-28T06:00:21;77302.53;;;-146.65;85.28
57094;BME280;42970;50.996;3.706;2023-02-28T06:02:46;77308.59;;;-146.65;84.94
57094;BME280;42970;50.996;3.706;2023-02-28T06:05:17;77318.69;;;-146.65;84.66
57094;BME280;42970;50.996;3.706;2023-02-28T06:07:43;77312.63;;;-146.65;84.91
57094;BME280;42970;50.996;3.706;2023-02-28T06:10:09;77316.66;;;-146.65;85.04
57094;BME280;42970;50.996;3.706;2023-02-28T06:12:34;77326.75;;;-146.65;85.16
57094;BME280;42970;50.996;3.706;2023-02-28T06:14:59;77324.75;;;-146.65;85.56
57094;BME280;42970;50.996;3.706;2023-02-28T06:17:25;77318.69;;;-146.65;85.79
57094;BME280;42970;50.996;3.706;2023-02-28T06:19:50;77324.75;;;-146.65;85.48
57094;BME280;42970;50.996;3.706;2023-02-28T06:22:15;77328.78;;;-146.65;85.61
57094;BME280;42970;50.996;3.706;2023-02-28T06:24:41;77310.63;;;-146.65;85.24
57094;BME280;42970;50.996;3.706;2023-02-28T06:27:06;77308.59;;;-146.65;85.35
57094;BME280;42970;50.996;3.706;2023-02-28T06:29:32;77306.56;;;-146.65;84.32
57094;BME280;42970;50.996;3.706;2023-02-28T06:31:57;77316.66;;;-146.65;84.46
57094;BME280;42970;50.996;3.706;2023-02-28T06:34:23;77308.59;;;-146.65;84.36
57094;BME280;42970;50.996;3.706;2023-02-28T06:36:49;77302.53;;;-146.65;84.08
57094;BME280;42970;50.996;3.706;2023-02-28T06:39:15;77300.53;;;-146.65;84.42
57094;BME280;42970;50.996;3.706;2023-02-28T06:41:40;77300.53;;;-146.65;83.96
57094;BME280;42970;50.996;3.706;2023-02-28T06:44:10;77294.47;;;-146.65;84.10
57094;BME280;42970;50.996;3.706;2023-02-28T06:46:38;77296.50;;;-146.65;84.14
57094;BME280;42970;50.996;3.706;2023-02-28T06:49:03;77302.53;;;-146.65;83.73
57094;BME280;42970;50.996;3.706;2023-02-28T06:51:28;77290.44;;;-146.65;84.11
57094;BME280;42970;50.996;3.706;2023-02-28T06:53:54;77288.41;;;-146.65;84.15
57094;BME280;42970;50.996;3.706;2023-02-28T06:56:19;77288.41;;;-146.65;83.98
57094;BME280;42970;50.996;3.706;2023-02-28T06:58:48;77278.31;;;-146.65;83.64
57094;BME280;42970;50.996;3.706;2023-02-28T07:01:14;77288.41;;;-146.65;83.35
57094;BME280;42970;50.996;3.706;2023-02-28T07:03:39;77284.38;;;-146.65;82.89
57094;BME280;42970;50.996;3.706;2023-02-28T07:06:05;77284.38;;;-146.65;82.88
57094;BME280;42970;50.996;3.706;2023-02-28T07:08:31;77290.44;;;-146.65;82.72
57094;BME280;42970;50.996;3.706;2023-02-28T07:10:57;77278.31;;;-146.65;82.21
57094;BME280;42970;50.996;3.706;2023-02-28T07:13:22;77278.31;;;-146.65;82.65
57094;BME280;42970;50.996;3.706;2023-02-28T07:15:54;77264.19;;;-146.65;82.32
57094;BME280;42970;50.996;3.706;2023-02-28T07:18:20;77274.28;;;-146.65;81.48
57094;BME280;42970;50.996;3.706;2023-02-28T07:20:45;77266.22;;;-146.65;81.33
57094;BME280;42970;50.996;3.706;2023-02-28T07:23:13;77268.25;;;-146.65;81.40
57094;BME280;42970;50.996;3.706;2023-02-28T07:25:39;77244.03;;;-146.65;80.27
57094;BME280;42970;50.996;3.706;2023-02-28T07:28:04;77235.94;;;-146.65;79.91
57094;BME280;42970;50.996;3.706;2023-02-28T07:30:29;77252.09;;;-146.65;80.00
57094;BME280;42970;50.996;3.706;2023-02-28T07:32:55;77250.06;;;-146.65;79.23
57094;BME280;42970;50.996;3.706;2023-02-28T07:35:22;77235.94;;;-146.65;79.38
57094;BME280;42970;50.996;3.706;2023-02-28T07:37:47;77244.03;;;-146.65;78.94
57094;BME280;42970;50.996;3.706;2023-02-28T07:40:13;77237.97;;;-146.65;78.76
57094;BME280;42970;50.996;3.706;2023-02-28T07:42:39;77221.81;;;-146.65;78.58
57094;BME280;42970;50.996;3.706;2023-02-28T07:45:05;77235.94;;;-146.65;78.36
57094;BME280;42970;50.996;3.706;2023-02-28T07:47:31;77229.91;;;-146.65;78.46
57094;BME280;42970;50.996;3.706;2023-02-28T07:49:57;77217.78;;;-146.65;77.67
57094;BME280;42970;50.996;3.706;2023-02-28T07:52:22;77219.81;;;-146.65;77.73
57094;BME280;42970;50.996;3.706;2023-02-28T07:54:48;77217.78;;;-146.65;77.68
57094;BME280;42970;50.996;3.706;2023-02-28T07:57:14;77215.78;;;-146.65;77.41
57094;BME280;42970;50.996;3.706;2023-02-28T07:59:39;77209.72;;;-146.65;77.39
57094;BME280;42970;50.996;3.706;2023-02-28T08:02:06;77207.69;;;-146.65;77.57
57094;BME280;42970;50.996;3.706;2023-02-28T08:04:31;77215.78;;;-146.65;77.45
57094;BME280;42970;50.996;3.706;2023-02-28T08:06:57;77213.75;;;-146.65;77.87
57094;BME280;42970;50.996;3.706;2023-02-28T08:09:23;77189.53;;;-146.65;77.85
57094;BME280;42970;50.996;3.706;2023-02-28T08:11:48;77167.34;;;-146.65;77.32
57094;BME280;42970;50.996;3.706;2023-02-28T08:14:14;77167.34;;;-146.65;76.54
57094;BME280;42970;50.996;3.706;2023-02-28T08:16:39;77167.34;;;-146.65;75.88
57094;BME280;42970;50.996;3.706;2023-02-28T08:19:04;77135.06;;;-146.65;75.43
57094;BME280;42970;50.996;3.706;2023-02-28T08:21:30;77108.81;;;-146.65;74.81
57094;BME280;42970;50.996;3.706;2023-02-28T08:23:55;77135.06;;;-146.65;74.99
57094;BME280;42970;50.996;3.706;2023-02-28T08:26:21;77124.97;;;-146.65;75.44
57094;BME280;42970;50.996;3.706;2023-02-28T08:28:47;77124.97;;;-146.65;74.61
57094;BME280;42970;50.996;3.706;2023-02-28T08:31:13;77112.84;;;-146.65;73.85
57094;BME280;42970;50.996;3.706;2023-02-28T08:33:39;77118.91;;;-146.65;74.17
57094;BME280;42970;50.996;3.706;2023-02-28T08:36:05;77106.81;;;-146.65;74.00
57094;BME280;42970;50.996;3.706;2023-02-28T08:38:30;77100.75;;;-146.65;73.77
57094;BME280;42970;50.996;3.706;2023-02-28T08:40:59;77112.84;;;-146.65;73.92
57094;BME280;42970;50.996;3.706;2023-02-28T08:43:25;77110.84;;;-146.65;73.55
57094;BME280;42970;50.996;3.706;2023-02-28T08:45:53;77110.84;;;-146.65;73.89
57094;BME280;42970;50.996;3.706;2023-02-28T08:48:19;77122.94;;;-146.65;72.97
57094;BME280;42970;50.996;3.706;2023-02-28T08:50:53;77116.91;;;-146.65;72.92
57094;BME280;42970;50.996;3.706;2023-02-28T08:53:19;77096.72;;;-146.65;72.51
57094;BME280;42970;50.996;3.706;2023-02-28T08:55:44;77060.41;;;-146.65;72.41
57094;BME280;42970;50.996;3.706;2023-02-28T08:58:10;77082.59;;;-146.65;71.46
57094;BME280;42970;50.996;3.706;2023-02-28T09:00:35;77072.50;;;-146.65;71.19
57094;BME280;42970;50.996;3.706;2023-02-28T09:03:01;77072.50;;;-146.65;71.00
57094;BME280;42970;50.996;3.706;2023-02-28T09:05:27;77112.84;;;-146.65;69.59
57094;BME280;42970;50.996;3.706;2023-02-28T09:07:54;77116.91;;;-146.65;69.28
57094;BME280;42970;50.996;3.706;2023-02-28T09:10:19;77129.00;;;-146.65;67.15
57094;BME280;42970;50.996;3.706;2023-02-28T09:12:44;77147.16;;;-146.65;67.22
57094;BME280;42970;50.996;3.706;2023-02-28T09:15:12;77139.09;;;-146.65;67.37
57094;BME280;42970;50.996;3.706;2023-02-28T09:17:37;77157.25;;;-146.65;68.16
57094;BME280;42970;50.996;3.706;2023-02-28T09:20:03;77147.16;;;-146.65;67.15
57094;BME280;42970;50.996;3.706;2023-02-28T09:22:28;77141.09;;;-146.65;66.15
57094;BME280;42970;50.996;3.706;2023-02-28T09:24:54;77159.28;;;-146.65;63.25
57094;BME280;42970;50.996;3.706;2023-02-28T09:27:19;77165.31;;;-146.65;64.05
57094;BME280;42970;50.996;3.706;2023-02-28T09:29:44;77126.97;;;-146.65;63.62
57094;BME280;42970;50.996;3.706;2023-02-28T09:32:10;77126.97;;;-146.65;62.62
57094;BME280;42970;50.996;3.706;2023-02-28T09:34:35;77131.03;;;-146.65;62.16
57094;BME280;42970;50.996;3.706;2023-02-28T09:37:01;77122.94;;;-146.65;62.69
57094;BME280;42970;50.996;3.706;2023-02-28T09:39:27;77155.22;;;-146.65;61.83
57094;BME280;42970;50.996;3.706;2023-02-28T09:41:54;77135.06;;;-146.65;61.44
57094;BME280;42970;50.996;3.706;2023-02-28T09:46:49;77124.97;;;-146.65;59.83
57094;BME280;42970;50.996;3.706;2023-02-28T09:49:19;77094.69;;;-146.65;59.80
57094;BME280;42970;50.996;3.706;2023-02-28T09:51:58;77072.50;;;-146.65;58.59
57094;BME280;42970;50.996;3.706;2023-02-28T09:54:24;77092.69;;;-146.65;57.52
57094;BME280;42970;50.996;3.706;2023-02-28T09:56:53;77088.66;;;-146.65;58.30
57094;BME280;42970;50.996;3.706;2023-02-28T10:04:47;77080.56;;;-146.65;55.51
57094;BME280;42970;50.996;3.706;2023-02-28T10:07:22;77076.53;;;-146.65;54.87
57094;BME280;42970;50.996;3.706;2023-02-28T10:09:52;77094.69;;;-146.65;53.74
57094;BME280;42970;50.996;3.706;2023-02-28T10:12:19;77114.88;;;-146.65;53.88
57094;BME280;42970;50.996;3.706;2023-02-28T10:14:45;77102.78;;;-146.65;53.28
57094;BME280;42970;50.996;3.706;2023-02-28T10:17:13;77070.50;;;-146.65;53.40
57094;BME280;42970;50.996;3.706;2023-02-28T10:19:41;77084.63;;;-146.65;52.14
57094;BME280;42970;50.996;3.706;2023-02-28T10:24:52;77007.94;;;-146.65;50.48
57094;BME280;42970;50.996;3.706;2023-02-28T10:27:19;76989.78;;;-146.65;50.15
57094;BME280;42970;50.996;3.706;2023-02-28T10:29:50;76979.69;;;-146.65;49.40
57094;BME280;42970;50.996;3.706;2023-02-28T10:32:17;77009.94;;;-146.65;49.01
57094;BME280;42970;50.996;3.706;2023-02-28T10:34:42;76961.53;;;-146.65;48.90
57094;BME280;42970;50.996;3.706;2023-02-28T10:37:08;76971.63;;;-146.65;46.48
57094;BME280;42970;50.996;3.706;2023-02-28T10:39:44;76949.41;;;-146.65;45.10
57094;BME280;42970;50.996;3.706;2023-02-28T10:45:03;76953.47;;;-146.65;45.21
57094;BME280;42970;50.996;3.706;2023-02-28T10:47:29;76929.25;;;-146.65;43.59
57094;BME280;42970;50.996;3.706;2023-02-28T10:49:55;76923.19;;;-146.65;43.02
57094;BME280;42970;50.996;3.706;2023-02-28T10:52:37;76892.91;;;-146.65;42.89
57094;BME280;42970;50.996;3.706;2023-02-28T10:55:20;76701.25;;;-146.65;41.84
57094;BME280;42970;50.996;3.706;2023-02-28T10:57:46;76606.41;;;-146.65;40.46
57094;BME280;42970;50.996;3.706;2023-02-28T11:00:14;76602.38;;;-146.65;39.96
57094;BME280;42970;50.996;3.706;2023-02-28T11:02:40;76547.91;;;-146.65;39.39
57094;BME280;42970;50.996;3.706;2023-02-28T11:05:23;76562.03;;;-146.65;39.24
57094;BME280;42970;50.996;3.706;2023-02-28T11:07:52;76626.59;;;-146.65;40.29
57094;BME280;42970;50.996;3.706;2023-02-28T11:10:19;76670.97;;;-146.65;40.77
57094;BME280;42970;50.996;3.706;2023-02-28T11:12:46;76634.66;;;-146.65;39.97
57094;BME280;42970;50.996;3.706;2023-02-28T11:17:39;76469.22;;;-146.65;38.53
57094;BME280;42970;50.996;3.706;2023-02-28T11:20:06;76517.66;;;-146.65;38.79
57094;BME280;42970;50.996;3.706;2023-02-28T11:22:35;76388.53;;;-146.65;38.00
57094;BME280;42970;50.996;3.706;2023-02-28T11:25:06;76400.63;;;-146.65;37.39
57094;BME280;42970;50.996;3.706;2023-02-28T11:29:59;76295.72;;;-146.65;37.05
57094;BME280;42970;50.996;3.706;2023-02-28T11:32:26;76432.91;;;-146.65;37.11
57094;BME280;42970;50.996;3.706;2023-02-28T11:35:04;76346.16;;;-146.65;36.30
57094;BME280;42970;50.996;3.706;2023-02-28T11:37:39;76392.56;;;-146.65;36.89
57094;BME280;42970;50.996;3.706;2023-02-28T11:40:14;76196.88;;;-146.65;35.98
57094;BME280;42970;50.996;3.706;2023-02-28T11:50:38;76372.38;;;-146.65;35.07
57094;BME280;42970;50.996;3.706;2023-02-28T11:53:12;76325.97;;;-146.65;34.71
57094;BME280;42970;50.996;3.706;2023-02-28T11:55:42;76319.94;;;-146.65;34.38
57094;BME280;42970;50.996;3.706;2023-02-28T11:58:14;76305.81;;;-146.65;34.26
57094;BME280;42970;50.996;3.706;2023-02-28T12:08:40;76182.75;;;-146.65;32.25
57094;BME280;42970;50.996;3.706;2023-02-28T12:11:19;76166.59;;;-146.65;32.11
57094;BME280;42970;50.996;3.706;2023-02-28T12:25:01;76146.44;;;-146.65;31.15
57094;BME280;42970;50.996;3.706;2023-02-28T12:27:39;76219.06;;;-146.65;31.50
57094;BME280;42970;50.996;3.706;2023-02-28T12:33:03;76172.66;;;-146.65;30.83
57094;BME280;42970;50.996;3.706;2023-02-28T12:35:39;75932.59;;;-146.65;29.96
57094;BME280;42970;50.996;3.706;2023-02-28T12:40:57;76021.34;;;-146.65;29.23
57094;BME280;42970;50.996;3.706;2023-02-28T12:43:27;76120.22;;;-146.65;29.70
57094;BME280;42970;50.996;3.706;2023-02-28T12:48:33;76257.38;;;-146.65;30.73
57094;BME280;42970;50.996;3.706;2023-02-28T12:51:24;76025.41;;;-146.65;29.60
57094;BME280;42970;50.996;3.706;2023-02-28T12:59:33;76085.91;;;-146.65;29.57
57094;BME280;42970;50.996;3.706;2023-02-28T13:09:15;76081.88;;;-146.65;28.77
57094;BME280;42970;50.996;3.706;2023-02-28T13:11:45;76206.97;;;-146.65;28.96
57094;BME280;42970;50.996;3.706;2023-02-28T13:17:03;76525.72;;;-146.65;31.66
57094;BME280;42970;50.996;3.706;2023-02-28T13:19:36;76622.56;;;-146.65;32.25
57094;BME280;42970;50.996;3.706;2023-02-28T13:22:02;76670.97;;;-146.65;32.23
57094;BME280;42970;50.996;3.706;2023-02-28T13:24:39;76616.50;;;-146.65;32.30
57094;BME280;42970;50.996;3.706;2023-02-28T13:39:53;76650.81;;;-146.65;34.15
57094;BME280;42970;50.996;3.706;2023-02-28T13:47:27;76683.09;;;-146.65;33.60
57094;BME280;42970;50.996;3.706;2023-02-28T13:49:53;76666.94;;;-146.65;34.62
57094;BME280;42970;50.996;3.706;2023-02-28T13:52:20;76636.69;;;-146.65;34.06
57094;BME280;42970;50.996;3.706;2023-02-28T14:05:21;76648.78;;;-146.65;35.05
57094;BME280;42970;50.996;3.706;2023-02-28T14:07:52;76646.75;;;-146.65;35.05
57094;BME280;42970;50.996;3.706;2023-02-28T14:10:23;76608.44;;;-146.65;35.42
57094;BME280;42970;50.996;3.706;2023-02-28T14:13:01;76648.78;;;-146.65;34.79
57094;BME280;42970;50.996;3.706;2023-02-28T14:17:54;76677.03;;;-146.65;35.20
57094;BME280;42970;50.996;3.706;2023-02-28T14:20:20;76675.00;;;-146.65;35.19
57094;BME280;42970;50.996;3.706;2023-02-28T14:25:35;76683.09;;;-146.65;35.18
57094;BME280;42970;50.996;3.706;2023-02-28T14:30:53;76717.38;;;-146.65;35.16
57094;BME280;42970;50.996;3.706;2023-02-28T14:36:14;76687.13;;;-146.65;35.91
57094;BME280;42970;50.996;3.706;2023-02-28T14:41:13;76695.19;;;-146.65;35.79
57094;BME280;42970;50.996;3.706;2023-02-28T14:43:47;76691.16;;;-146.65;36.17
57094;BME280;42970;50.996;3.706;2023-02-28T14:46:13;76705.28;;;-146.65;35.99
57094;BME280;42970;50.996;3.706;2023-02-28T14:48:38;76723.44;;;-146.65;35.62
57094;BME280;42970;50.996;3.706;2023-02-28T14:51:04;76715.38;;;-146.65;36.30
57094;BME280;42970;50.996;3.706;2023-02-28T14:53:30;76699.22;;;-146.65;36.33
57094;BME280;42970;50.996;3.706;2023-02-28T14:56:00;76691.16;;;-146.65;36.02
57094;BME280;42970;50.996;3.706;2023-02-28T14:58:30;76683.09;;;-146.65;36.12
57094;BME280;42970;50.996;3.706;2023-02-28T15:00:57;76693.19;;;-146.65;35.93
57094;BME280;42970;50.996;3.706;2023-02-28T15:03:33;76705.28;;;-146.65;35.85
57094;BME280;42970;50.996;3.706;2023-02-28T15:05:59;76717.38;;;-146.65;35.55
57094;BME280;42970;50.996;3.706;2023-02-28T15:08:25;76713.34;;;-146.65;36.46
57094;BME280;42970;50.996;3.706;2023-02-28T15:11:03;76711.34;;;-146.65;36.28